createdAt,value
2022-11-25T00:00:14.082Z,6.28
2022-11-25T00:02:44.980Z,6.50
2022-11-25T00:05:12.370Z,7.22
2022-11-25T00:07:39.629Z,6.38
2022-11-25T00:10:07.174Z,6.22
2022-11-25T00:12:34.360Z,7.45
2022-11-25T00:15:03.583Z,10.30
2022-11-25T00:17:30.831Z,7.00
2022-11-25T00:20:01.579Z,8.40
2022-11-25T00:22:28.789Z,6.32
2022-11-25T00:24:55.969Z,6.82
2022-11-25T00:27:23.145Z,7.50
2022-11-25T00:29:50.297Z,7.57
2022-11-25T00:32:17.421Z,6.38
2022-11-25T00:34:44.693Z,8.98
2022-11-25T00:37:11.856Z,7.03
2022-11-25T00:39:39.035Z,6.72
2022-11-25T00:42:24.855Z,8.57
2022-11-25T00:44:52.048Z,6.32
2022-11-25T00:47:20.391Z,5.32
2022-11-25T00:49:48.662Z,6.32
2022-11-25T00:52:17.493Z,5.68
2022-11-25T00:54:47.802Z,5.90
2022-11-25T00:57:15.715Z,5.78
2022-11-25T00:59:42.909Z,5.90
2022-11-25T01:02:11.534Z,5.55
2022-11-25T01:04:38.947Z,5.90
2022-11-25T01:07:06.504Z,6.35
2022-11-25T01:09:33.672Z,5.57
2022-11-25T01:12:00.933Z,5.82
2022-11-25T01:14:28.279Z,5.80
2022-11-25T01:16:55.495Z,6.28
2022-11-25T01:19:22.787Z,5.55
2022-11-25T01:21:49.924Z,5.70
2022-11-25T01:24:17.570Z,6.32
2022-11-25T01:26:45.266Z,7.13
2022-11-25T01:29:17.454Z,7.07
2022-11-25T01:31:45.155Z,6.95
2022-11-25T01:34:23.033Z,7.07
2022-11-25T01:36:50.236Z,5.78
2022-11-25T01:39:19.399Z,7.55
2022-11-25T01:41:46.678Z,7.32
2022-11-25T01:44:21.173Z,8.75
2022-11-25T01:47:12.223Z,7.07
2022-11-25T01:49:44.819Z,6.38
2022-11-25T01:52:11.991Z,7.35
2022-11-25T01:54:41.651Z,6.28
2022-11-25T01:57:15.018Z,7.43
2022-11-25T01:59:45.151Z,8.13
2022-11-25T02:02:12.793Z,8.10
2022-11-25T02:04:41.070Z,8.02
2022-11-25T02:07:10.431Z,8.57
2022-11-25T02:09:40.025Z,8.75
2022-11-25T02:12:08.803Z,10.68
2022-11-25T02:14:36.659Z,10.90
2022-11-25T02:17:04.006Z,9.88
2022-11-25T02:19:50.064Z,9.48
2022-11-25T02:22:22.869Z,9.20
2022-11-25T02:24:51.509Z,9.05
2022-11-25T02:27:18.718Z,13.40
2022-11-25T02:29:47.459Z,9.00
2022-11-25T02:32:14.668Z,8.13
2022-11-25T02:34:51.464Z,8.55
2022-11-25T02:37:19.936Z,7.82
2022-11-25T02:39:48.597Z,8.05
2022-11-25T02:42:16.412Z,8.45
2022-11-25T02:44:43.619Z,7.50
2022-11-25T02:47:10.807Z,8.90
2022-11-25T02:49:38.005Z,9.55
2022-11-25T02:52:05.265Z,9.55
2022-11-25T02:54:32.571Z,11.27
2022-11-25T02:56:59.754Z,8.50
2022-11-25T02:59:26.937Z,8.27
2022-11-25T03:01:54.161Z,11.95
2022-11-25T03:04:21.463Z,11.05
2022-11-25T03:06:48.649Z,11.40
2022-11-25T03:09:15.820Z,9.77
2022-11-25T03:12:01.445Z,12.32
2022-11-25T03:14:28.633Z,9.02
2022-11-25T03:16:55.797Z,12.38
2022-11-25T03:19:23.019Z,12.45
2022-11-25T03:21:50.290Z,8.13
2022-11-25T03:24:17.458Z,10.68
2022-11-25T03:26:44.623Z,12.32
2022-11-25T03:29:11.859Z,7.97
2022-11-25T03:31:39.019Z,9.70
2022-11-25T03:34:06.242Z,9.82
2022-11-25T03:36:33.514Z,7.97
2022-11-25T03:39:00.893Z,8.10
2022-11-25T03:41:28.018Z,8.32
2022-11-25T03:43:55.207Z,7.80
2022-11-25T03:46:22.591Z,6.65
2022-11-25T03:48:49.836Z,7.10
2022-11-25T03:51:17.006Z,7.13
2022-11-25T03:53:44.168Z,8.02
2022-11-25T03:56:11.330Z,9.10
2022-11-25T03:58:38.500Z,12.70
2022-11-25T04:01:05.709Z,21.70
2022-11-25T04:03:32.948Z,19.00
2022-11-25T04:06:00.195Z,13.00
2022-11-25T04:08:27.554Z,13.88
2022-11-25T04:10:54.856Z,16.67
2022-11-25T04:13:22.043Z,11.70
2022-11-25T04:15:50.216Z,10.05
2022-11-25T04:18:18.066Z,9.40
2022-11-25T04:20:45.669Z,8.10
2022-11-25T04:23:13.556Z,9.57
2022-11-25T04:25:41.029Z,9.43
2022-11-25T04:28:08.151Z,8.68
2022-11-25T04:30:35.397Z,15.43
2022-11-25T04:33:02.995Z,8.32
2022-11-25T04:35:30.176Z,6.90
2022-11-25T04:37:57.373Z,8.57
2022-11-25T04:40:24.705Z,8.35
2022-11-25T04:42:56.108Z,5.72
2022-11-25T04:45:26.988Z,6.68
2022-11-25T04:47:54.225Z,7.03
2022-11-25T04:50:23.484Z,8.38
2022-11-25T04:52:50.710Z,8.23
2022-11-25T04:55:17.912Z,9.85
2022-11-25T04:57:45.067Z,7.05
2022-11-25T05:00:12.654Z,8.90
2022-11-25T05:02:40.135Z,12.23
2022-11-25T05:05:07.645Z,11.18
2022-11-25T05:07:34.808Z,11.88
2022-11-25T05:10:01.957Z,9.98
2022-11-25T05:12:30.017Z,9.10
2022-11-25T05:14:57.918Z,9.52
2022-11-25T05:17:26.497Z,6.10
2022-11-25T05:19:54.054Z,7.20
2022-11-25T05:22:22.766Z,8.15
2022-11-25T05:24:49.971Z,9.57
2022-11-25T05:27:17.968Z,10.00
2022-11-25T05:29:45.393Z,8.35
2022-11-25T05:32:12.629Z,7.68
2022-11-25T05:34:40.199Z,7.28
2022-11-25T05:37:07.769Z,9.77
2022-11-25T05:39:38.078Z,8.55
2022-11-25T05:42:05.227Z,11.18
2022-11-25T05:44:32.404Z,11.77
2022-11-25T05:46:59.563Z,10.35
2022-11-25T05:49:26.843Z,11.10
2022-11-25T05:51:53.971Z,11.75
2022-11-25T05:54:21.093Z,13.52
2022-11-25T05:56:48.223Z,16.48
2022-11-25T05:59:15.433Z,17.98
2022-11-25T06:01:42.666Z,13.93
2022-11-25T06:04:10.657Z,11.65
2022-11-25T06:06:37.868Z,9.27
2022-11-25T06:09:05.047Z,9.15
2022-11-25T06:11:32.250Z,9.55
2022-11-25T06:13:59.621Z,8.95
2022-11-25T06:16:26.901Z,9.85
2022-11-25T06:18:54.141Z,9.38
2022-11-25T06:21:21.320Z,9.32
2022-11-25T06:23:48.472Z,8.40
2022-11-25T06:26:20.225Z,7.53
2022-11-25T06:28:48.211Z,7.57
2022-11-25T06:31:17.389Z,6.32
2022-11-25T06:33:47.230Z,6.15
2022-11-25T06:36:17.371Z,6.95
2022-11-25T06:38:48.583Z,6.75
2022-11-25T06:41:16.112Z,5.70
2022-11-25T06:43:43.345Z,5.47
2022-11-25T06:46:18.511Z,5.03
2022-11-25T06:48:50.252Z,7.15
2022-11-25T06:51:17.798Z,24.35
2022-11-25T06:53:45.441Z,37.92
2022-11-25T06:56:17.153Z,24.20
2022-11-25T06:58:44.872Z,28.40
2022-11-25T07:01:15.328Z,14.13
2022-11-25T07:03:43.368Z,9.68
2022-11-25T07:06:11.033Z,8.10
2022-11-25T07:08:38.243Z,11.80
2022-11-25T07:11:11.179Z,10.63
2022-11-25T07:13:38.356Z,8.38
2022-11-25T07:16:06.392Z,7.43
2022-11-25T07:18:35.031Z,7.80
2022-11-25T07:21:07.084Z,7.32
2022-11-25T07:23:34.987Z,6.90
2022-11-25T07:26:07.536Z,7.78
2022-11-25T07:28:34.829Z,7.05
2022-11-25T07:31:23.345Z,7.47
2022-11-25T07:33:56.090Z,8.73
2022-11-25T07:36:23.938Z,7.90
2022-11-25T07:38:51.224Z,7.70
2022-11-25T07:41:19.518Z,8.50
2022-11-25T07:43:47.582Z,8.30
2022-11-25T07:46:16.340Z,7.75
2022-11-25T07:48:44.015Z,9.05
2022-11-25T07:51:25.577Z,8.48
2022-11-25T07:53:53.796Z,8.60
2022-11-25T07:56:21.814Z,8.82
2022-11-25T07:58:49.044Z,9.25
2022-11-25T08:01:17.676Z,11.35
2022-11-25T08:03:45.718Z,13.73
2022-11-25T08:06:14.532Z,12.80
2022-11-25T08:08:42.210Z,18.13
2022-11-25T08:11:14.051Z,22.48
2022-11-25T08:13:41.668Z,25.85
2022-11-25T08:16:09.274Z,26.10
2022-11-25T08:18:36.558Z,17.83
2022-11-25T08:21:05.435Z,16.05
2022-11-25T08:23:33.071Z,14.13
2022-11-25T08:26:08.132Z,10.27
2022-11-25T08:28:35.822Z,11.27
2022-11-25T08:31:07.413Z,11.48
2022-11-25T08:33:34.680Z,12.13
2022-11-25T08:36:01.932Z,12.68
2022-11-25T08:38:29.779Z,15.25
2022-11-25T08:40:57.438Z,15.32
2022-11-25T08:43:29.173Z,15.93
2022-11-25T08:45:57.522Z,13.50
2022-11-25T08:48:24.980Z,12.35
2022-11-25T08:50:54.953Z,12.88
2022-11-25T08:53:22.830Z,12.50
2022-11-25T08:55:50.079Z,13.23
2022-11-25T08:58:17.295Z,15.18
2022-11-25T09:00:45.420Z,11.52
2022-11-25T09:03:12.701Z,16.27
2022-11-25T09:05:41.351Z,15.55
2022-11-25T09:08:09.450Z,14.27
2022-11-25T09:10:37.867Z,15.32
2022-11-25T09:13:05.419Z,34.05
2022-11-25T09:15:32.674Z,19.63
2022-11-25T09:18:04.690Z,15.63
2022-11-25T09:20:32.373Z,21.02
2022-11-25T09:23:00.450Z,64.82
2022-11-25T09:25:27.819Z,20.00
2022-11-25T09:27:55.998Z,23.30
2022-11-25T09:30:23.900Z,75.28
2022-11-25T09:32:51.968Z,44.67
2022-11-25T09:35:19.213Z,22.55
2022-11-25T09:37:46.518Z,11.85
2022-11-25T09:40:21.513Z,11.40
2022-11-25T09:43:07.226Z,13.02
2022-11-25T09:46:19.309Z,18.23
2022-11-25T09:49:00.504Z,12.07
2022-11-25T09:51:34.619Z,11.45
2022-11-25T09:54:09.826Z,9.10
2022-11-25T09:56:57.383Z,10.20
2022-11-25T09:59:30.374Z,8.90
2022-11-25T10:02:02.167Z,7.55
2022-11-25T10:04:41.427Z,6.40
2022-11-25T10:07:11.930Z,6.07
2022-11-25T10:09:39.481Z,4.82
2022-11-25T10:12:11.862Z,5.22
2022-11-25T10:14:49.871Z,4.20
2022-11-25T10:17:36.034Z,5.75
2022-11-25T10:20:06.207Z,4.22
2022-11-25T10:22:40.251Z,4.07
2022-11-25T10:25:13.989Z,3.75
2022-11-25T10:27:48.249Z,3.58
2022-11-25T10:30:20.567Z,3.58
2022-11-25T10:33:00.883Z,3.00
2022-11-25T10:35:34.405Z,3.45
2022-11-25T10:38:02.906Z,3.42
2022-11-25T10:40:30.312Z,3.97
2022-11-25T10:42:57.504Z,3.90
2022-11-25T10:45:30.353Z,4.22
2022-11-25T10:47:57.596Z,4.20
2022-11-25T10:50:48.442Z,4.15
2022-11-25T10:53:22.438Z,4.63
2022-11-25T10:56:00.784Z,3.88
2022-11-25T10:58:32.857Z,4.35
2022-11-25T11:01:21.720Z,4.80
2022-11-25T11:03:53.841Z,3.78
2022-11-25T11:06:32.183Z,4.05
2022-11-25T11:08:59.544Z,3.72
2022-11-25T11:11:27.074Z,3.58
2022-11-25T11:14:12.706Z,3.78
2022-11-25T11:16:42.098Z,3.20
2022-11-25T11:19:22.035Z,3.20
2022-11-25T11:21:49.989Z,3.10
2022-11-25T11:24:27.956Z,3.03
2022-11-25T11:27:10.452Z,2.45
2022-11-25T11:29:37.721Z,2.40
2022-11-25T11:32:08.567Z,2.63
2022-11-25T11:34:43.182Z,2.42
2022-11-25T11:37:29.770Z,2.60
2022-11-25T11:40:00.296Z,2.88
2022-11-25T11:42:41.537Z,2.97
2022-11-25T11:45:14.777Z,2.85
2022-11-25T11:47:42.072Z,3.30
2022-11-25T11:50:30.663Z,3.38
2022-11-25T11:53:11.230Z,2.83
2022-11-25T11:56:27.034Z,3.42
2022-11-25T11:58:57.474Z,3.15
2022-11-25T12:01:27.750Z,2.88
2022-11-25T12:04:15.177Z,3.00
2022-11-25T12:06:43.351Z,4.75
2022-11-25T12:09:14.373Z,3.22
2022-11-25T12:11:44.583Z,2.80
2022-11-25T12:14:21.058Z,2.30
2022-11-25T12:16:51.749Z,2.72
2022-11-25T12:19:24.504Z,2.40
2022-11-25T12:21:52.446Z,3.57
2022-11-25T12:24:25.829Z,4.38
2022-11-25T12:26:59.342Z,3.97
2022-11-25T12:31:59.678Z,4.88
2022-11-25T12:34:38.309Z,17.42
2022-11-25T12:37:15.044Z,20.80
2022-11-25T12:39:49.386Z,14.30
2022-11-25T12:42:18.899Z,9.77
2022-11-25T12:45:05.632Z,40.28
2022-11-25T12:47:33.035Z,25.02
2022-11-25T12:50:00.331Z,14.27
2022-11-25T12:52:27.444Z,6.57
2022-11-25T12:55:12.040Z,5.07
2022-11-25T12:57:54.618Z,12.23
2022-11-25T13:00:41.608Z,5.80
2022-11-25T13:03:13.885Z,9.75
2022-11-25T13:05:55.778Z,11.80
2022-11-25T13:08:22.896Z,32.42
2022-11-25T13:11:09.433Z,48.90
2022-11-25T13:13:50.483Z,13.00
2022-11-25T13:16:19.827Z,8.45
2022-11-25T13:18:47.584Z,4.80
2022-11-25T13:21:15.885Z,5.57
2022-11-25T13:23:59.071Z,10.13
2022-11-25T13:26:29.516Z,4.68
2022-11-25T13:28:57.313Z,28.67
2022-11-25T13:31:25.892Z,4.85
2022-11-25T13:33:53.049Z,8.38
2022-11-25T13:36:24.340Z,3.05
2022-11-25T13:38:51.690Z,2.15
2022-11-25T13:41:22.277Z,2.92
2022-11-25T13:44:01.841Z,2.72
2022-11-25T13:46:34.683Z,2.20
2022-11-25T13:49:02.467Z,2.70
2022-11-25T13:51:29.863Z,2.53
2022-11-25T13:54:06.318Z,2.20
2022-11-25T13:56:38.277Z,2.60
2022-11-25T13:59:11.388Z,1.95
2022-11-25T14:01:39.505Z,3.47
2022-11-25T14:04:11.182Z,4.22
2022-11-25T14:06:38.383Z,3.10
2022-11-25T14:09:11.342Z,3.28
2022-11-25T14:11:49.435Z,2.30
2022-11-25T14:14:49.767Z,2.95
2022-11-25T14:17:36.345Z,4.25
2022-11-25T14:20:21.851Z,4.72
2022-11-25T14:22:58.390Z,3.15
2022-11-25T14:25:30.195Z,3.80
2022-11-25T14:28:03.905Z,4.13
2022-11-25T14:30:32.268Z,3.55
2022-11-25T14:33:02.374Z,2.83
2022-11-25T14:35:44.845Z,2.63
2022-11-25T14:38:18.945Z,2.80
2022-11-25T14:43:20.815Z,3.78
2022-11-25T14:45:48.262Z,3.35
2022-11-25T14:48:15.693Z,3.38
2022-11-25T14:50:55.049Z,2.90
2022-11-25T14:53:22.225Z,4.07
2022-11-25T14:55:49.646Z,3.47
2022-11-25T14:58:20.950Z,3.70
2022-11-25T15:01:00.071Z,2.80
2022-11-25T15:03:27.953Z,3.53
2022-11-25T15:05:57.327Z,3.78
2022-11-25T15:08:25.658Z,3.30
2022-11-25T15:10:57.156Z,3.60
2022-11-25T15:13:35.394Z,3.28
2022-11-25T15:16:11.899Z,2.88
2022-11-25T15:18:39.421Z,2.70
2022-11-25T15:21:07.046Z,3.03
2022-11-25T15:23:37.471Z,3.20
2022-11-25T15:26:05.700Z,3.15
2022-11-25T15:28:36.963Z,3.67
2022-11-25T15:31:08.964Z,4.40
2022-11-25T15:33:37.289Z,4.28
2022-11-25T15:36:05.020Z,4.72
2022-11-25T15:38:37.003Z,5.18
2022-11-25T15:41:04.598Z,3.50
2022-11-25T15:43:32.591Z,4.50
2022-11-25T15:46:04.033Z,4.82
2022-11-25T15:48:35.963Z,3.50
2022-11-25T15:51:07.862Z,3.97
2022-11-25T15:53:37.649Z,3.10
2022-11-25T15:56:06.209Z,2.17
2022-11-25T15:58:33.520Z,2.55
2022-11-25T16:01:21.186Z,2.40
2022-11-25T16:03:48.602Z,2.40
2022-11-25T16:06:20.427Z,2.47
2022-11-25T16:09:01.413Z,2.53
2022-11-25T16:11:33.551Z,2.10
2022-11-25T16:14:20.027Z,2.50
2022-11-25T16:16:47.863Z,2.28
2022-11-25T16:19:20.430Z,2.40
2022-11-25T16:21:52.080Z,3.00
2022-11-25T16:24:33.394Z,2.78
2022-11-25T16:27:02.540Z,2.90
2022-11-25T16:29:32.652Z,2.95
2022-11-25T16:32:00.640Z,3.90
2022-11-25T16:34:28.487Z,3.55
2022-11-25T16:36:55.765Z,4.28
2022-11-25T16:39:22.979Z,4.70
2022-11-25T16:41:55.773Z,4.30
2022-11-25T16:44:23.772Z,4.40
2022-11-25T16:46:51.225Z,4.57
2022-11-25T16:49:19.417Z,4.60
2022-11-25T16:51:46.967Z,3.80
2022-11-25T16:54:14.123Z,3.80
2022-11-25T16:56:42.525Z,3.75
2022-11-25T16:59:16.180Z,3.72
2022-11-25T17:01:43.767Z,3.50
2022-11-25T17:04:15.037Z,3.85
2022-11-25T17:06:43.367Z,5.15
2022-11-25T17:09:10.931Z,5.30
2022-11-25T17:11:46.146Z,5.15
2022-11-25T17:14:16.922Z,5.28
2022-11-25T17:16:44.414Z,5.53
2022-11-25T17:19:14.778Z,4.65
2022-11-25T17:21:42.082Z,4.07
2022-11-25T17:24:19.936Z,4.65
2022-11-25T17:26:49.612Z,5.15
2022-11-25T17:29:21.499Z,4.70
2022-11-25T17:31:52.337Z,5.28
2022-11-25T17:36:50.054Z,5.75
2022-11-25T17:39:17.189Z,6.45
2022-11-25T17:41:46.808Z,6.43
2022-11-25T17:44:17.230Z,6.55
2022-11-25T17:46:44.522Z,6.50
2022-11-25T17:49:14.779Z,6.18
2022-11-25T17:51:42.646Z,5.55
2022-11-25T17:54:09.930Z,6.70
2022-11-25T17:56:37.336Z,6.60
2022-11-25T17:59:05.964Z,9.43
2022-11-25T18:01:33.510Z,8.73
2022-11-25T18:04:01.278Z,12.32
2022-11-25T18:06:28.485Z,11.98
2022-11-25T18:08:55.673Z,11.88
2022-11-25T18:11:22.994Z,9.90
2022-11-25T18:13:50.607Z,13.13
2022-11-25T18:16:19.339Z,10.15
2022-11-25T18:18:46.949Z,11.85
2022-11-25T18:21:14.217Z,12.52
2022-11-25T18:23:41.496Z,15.95
2022-11-25T18:26:10.069Z,10.65
2022-11-25T18:28:37.744Z,13.02
2022-11-25T18:31:06.041Z,11.25
2022-11-25T18:33:33.331Z,11.93
2022-11-25T18:36:00.568Z,13.77
2022-11-25T18:38:27.787Z,13.82
2022-11-25T18:40:55.613Z,15.63
2022-11-25T18:43:24.901Z,14.75
2022-11-25T18:45:53.572Z,14.57
2022-11-25T18:48:24.828Z,15.23
2022-11-25T18:50:53.155Z,15.50
2022-11-25T18:53:20.664Z,15.32
2022-11-25T18:55:48.551Z,13.52
2022-11-25T18:58:27.014Z,13.90
2022-11-25T19:00:56.485Z,13.48
2022-11-25T19:03:24.950Z,12.88
2022-11-25T19:05:54.239Z,13.30
2022-11-25T19:08:21.952Z,14.25
2022-11-25T19:10:49.503Z,14.55
2022-11-25T19:13:18.700Z,11.93
2022-11-25T19:15:46.439Z,11.10
2022-11-25T19:18:15.809Z,13.70
2022-11-25T19:20:43.257Z,14.02
2022-11-25T19:23:25.604Z,12.13
2022-11-25T19:25:53.883Z,12.10
2022-11-25T19:28:21.924Z,12.75
2022-11-25T19:30:49.140Z,12.23
2022-11-25T19:33:39.522Z,15.23
2022-11-25T19:36:07.486Z,16.08
2022-11-25T19:38:34.932Z,16.30
2022-11-25T19:41:02.125Z,16.75
2022-11-25T19:43:29.392Z,13.30
2022-11-25T19:45:57.832Z,13.85
2022-11-25T19:48:27.170Z,15.38
2022-11-25T19:50:59.756Z,15.30
2022-11-25T19:53:33.133Z,12.95
2022-11-25T19:56:04.814Z,11.57
2022-11-25T19:58:32.724Z,11.70
2022-11-25T20:01:02.949Z,10.90
2022-11-25T20:03:31.262Z,11.00
2022-11-25T20:05:58.609Z,11.00
2022-11-25T20:08:27.636Z,12.63
2022-11-25T20:10:55.343Z,13.57
2022-11-25T20:13:23.662Z,14.30
2022-11-25T20:15:51.118Z,13.40
2022-11-25T20:18:20.386Z,14.35
2022-11-25T20:20:49.374Z,14.63
2022-11-25T20:23:26.537Z,16.98
2022-11-25T20:25:53.977Z,17.67
2022-11-25T20:28:25.752Z,14.02
2022-11-25T20:30:53.451Z,12.20
2022-11-25T20:33:24.246Z,13.68
2022-11-25T20:35:53.510Z,13.55
2022-11-25T20:38:27.840Z,12.38
2022-11-25T20:40:57.004Z,10.93
2022-11-25T20:43:24.325Z,10.18
2022-11-25T20:45:51.904Z,12.27
2022-11-25T20:48:19.412Z,10.50
2022-11-25T20:50:46.759Z,10.27
2022-11-25T20:53:17.962Z,11.18
2022-11-25T20:55:45.985Z,10.80
2022-11-25T20:58:21.357Z,10.43
2022-11-25T21:00:52.794Z,13.98
2022-11-25T21:03:25.007Z,23.23
2022-11-25T21:05:52.889Z,15.15
2022-11-25T21:08:28.632Z,11.05
2022-11-25T21:10:56.696Z,11.00
2022-11-25T21:13:25.109Z,10.68
2022-11-25T21:15:56.777Z,14.75
2022-11-25T21:18:24.341Z,13.50
2022-11-25T21:20:52.567Z,11.85
2022-11-25T21:23:21.918Z,12.38
2022-11-25T21:25:50.176Z,14.23
2022-11-25T21:28:19.254Z,12.55
2022-11-25T21:30:47.172Z,12.55
2022-11-25T21:33:14.877Z,11.50
2022-11-25T21:35:43.688Z,10.77
2022-11-25T21:38:24.195Z,9.55
2022-11-25T21:40:52.623Z,8.57
2022-11-25T21:43:31.086Z,8.38
2022-11-25T21:46:03.113Z,8.02
2022-11-25T21:48:31.526Z,8.65
2022-11-25T21:50:59.019Z,12.73
2022-11-25T21:53:26.415Z,11.95
2022-11-25T21:55:53.861Z,10.13
2022-11-25T21:58:22.186Z,7.93
2022-11-25T22:00:51.298Z,8.57
2022-11-25T22:03:19.700Z,9.77
2022-11-25T22:05:47.318Z,11.30
2022-11-25T22:08:14.887Z,11.43
2022-11-25T22:10:43.747Z,11.52
2022-11-25T22:13:14.368Z,13.10
2022-11-25T22:15:41.674Z,12.25
2022-11-25T22:18:12.727Z,9.32
2022-11-25T22:20:41.121Z,8.63
2022-11-25T22:23:14.809Z,8.20
2022-11-25T22:25:42.002Z,9.95
2022-11-25T22:28:09.202Z,9.73
2022-11-25T22:30:37.408Z,10.85
2022-11-25T22:33:04.755Z,9.90
2022-11-25T22:35:32.116Z,11.57
2022-11-25T22:37:59.271Z,13.88
2022-11-25T22:40:26.427Z,11.27
2022-11-25T22:42:54.492Z,11.13
2022-11-25T22:45:32.714Z,12.70
2022-11-25T22:48:00.861Z,19.20
2022-11-25T22:50:29.325Z,19.25
2022-11-25T22:52:56.942Z,10.75
2022-11-25T22:55:25.575Z,7.82
2022-11-25T22:57:54.047Z,9.35
2022-11-25T23:00:23.074Z,16.75
2022-11-25T23:02:50.913Z,14.73
2022-11-25T23:05:21.119Z,16.08
2022-11-25T23:07:48.439Z,14.05
2022-11-25T23:10:20.203Z,11.48
2022-11-25T23:12:47.786Z,11.15
2022-11-25T23:15:19.099Z,8.80
2022-11-25T23:17:50.966Z,8.15
2022-11-25T23:20:20.423Z,10.05
2022-11-25T23:22:48.162Z,8.50
2022-11-25T23:25:16.592Z,7.60
2022-11-25T23:27:43.812Z,6.68
2022-11-25T23:30:15.537Z,6.60
2022-11-25T23:32:42.995Z,6.72
2022-11-25T23:35:14.745Z,6.95
2022-11-25T23:37:42.223Z,8.27
2022-11-25T23:40:15.115Z,8.57
2022-11-25T23:42:42.307Z,8.85
2022-11-25T23:45:10.641Z,8.13
2022-11-25T23:47:37.832Z,8.27
2022-11-25T23:50:05.394Z,7.07
2022-11-25T23:52:32.633Z,8.35
2022-11-25T23:54:59.938Z,11.45
2022-11-25T23:57:30.362Z,9.80
2022-11-25T23:59:57.600Z,9.10
